createdAt,value
2022-08-03T00:01:24.032Z,27.30
2022-08-03T00:03:51.268Z,27.30
2022-08-03T00:06:18.571Z,27.30
2022-08-03T00:08:45.822Z,27.30
2022-08-03T00:11:12.869Z,27.30
2022-08-03T00:13:40.097Z,27.30
2022-08-03T00:16:07.282Z,27.30
2022-08-03T00:18:34.331Z,27.30
2022-08-03T00:21:01.887Z,27.20
2022-08-03T00:23:50.896Z,27.20
2022-08-03T00:26:16.165Z,27.10
2022-08-03T00:28:43.312Z,26.80
2022-08-03T00:31:13.513Z,26.50
2022-08-03T00:33:58.275Z,26.30
2022-08-03T00:36:27.403Z,26.30
2022-08-03T00:38:54.894Z,26.30
2022-08-03T00:41:22.349Z,26.20
2022-08-03T00:43:49.483Z,26.20
2022-08-03T00:46:21.291Z,26.10
2022-08-03T00:48:52.100Z,26.00
2022-08-03T00:51:20.010Z,25.90
2022-08-03T00:53:47.419Z,25.80
2022-08-03T00:56:15.333Z,25.80
2022-08-03T00:58:44.209Z,25.80
2022-08-03T01:01:12.364Z,25.80
2022-08-03T01:03:39.782Z,25.90
2022-08-03T01:06:17.387Z,25.80
2022-08-03T01:08:48.491Z,26.00
2022-08-03T01:11:35.839Z,26.00
2022-08-03T01:14:30.989Z,26.00
2022-08-03T01:17:03.874Z,26.20
2022-08-03T01:19:40.053Z,26.30
2022-08-03T01:22:26.013Z,26.40
2022-08-03T01:25:11.736Z,26.50
2022-08-03T01:27:41.630Z,26.50
2022-08-03T01:30:09.513Z,26.60
2022-08-03T01:33:00.679Z,26.60
2022-08-03T01:35:47.745Z,26.60
2022-08-03T01:38:34.127Z,26.60
2022-08-03T01:41:05.920Z,26.70
2022-08-03T01:43:58.925Z,26.70
2022-08-03T01:46:21.777Z,26.70
2022-08-03T01:48:49.533Z,26.70
2022-08-03T01:51:18.368Z,26.70
2022-08-03T01:53:46.925Z,26.70
2022-08-03T01:56:14.374Z,26.70
2022-08-03T01:58:41.999Z,26.70
2022-08-03T02:01:10.149Z,26.70
2022-08-03T02:04:00.935Z,26.70
2022-08-03T02:06:59.926Z,26.70
2022-08-03T02:09:15.298Z,26.70
2022-08-03T02:11:42.668Z,26.70
2022-08-03T02:14:10.568Z,26.70
2022-08-03T02:16:37.715Z,26.70
2022-08-03T02:19:06.450Z,26.70
2022-08-03T02:21:55.817Z,26.70
2022-08-03T02:24:22.687Z,26.70
2022-08-03T02:26:51.388Z,26.70
2022-08-03T02:29:39.887Z,26.70
2022-08-03T02:32:13.900Z,26.70
2022-08-03T02:34:42.758Z,26.60
2022-08-03T02:37:10.410Z,26.60
2022-08-03T02:39:39.358Z,26.70
2022-08-03T02:42:08.589Z,26.70
2022-08-03T02:44:37.573Z,26.70
2022-08-03T02:47:07.463Z,26.70
2022-08-03T02:49:50.991Z,26.60
2022-08-03T02:52:23.684Z,26.60
2022-08-03T02:54:52.766Z,26.60
2022-08-03T02:57:21.276Z,26.60
2022-08-03T02:59:48.878Z,26.60
2022-08-03T03:02:17.210Z,26.60
2022-08-03T03:05:51.573Z,26.60
2022-08-03T03:07:34.682Z,26.60
2022-08-03T03:10:20.841Z,26.60
2022-08-03T03:12:48.428Z,26.60
2022-08-03T03:15:15.621Z,26.60
2022-08-03T03:17:43.192Z,26.60
2022-08-03T03:20:10.703Z,26.60
2022-08-03T03:22:38.142Z,26.60
2022-08-03T03:25:07.561Z,26.60
2022-08-03T03:27:34.693Z,26.50
2022-08-03T03:30:02.422Z,26.50
2022-08-03T03:32:29.795Z,26.60
2022-08-03T03:34:59.137Z,26.50
2022-08-03T03:37:26.696Z,26.50
2022-08-03T03:39:54.643Z,26.50
2022-08-03T03:42:22.099Z,26.50
2022-08-03T03:44:49.249Z,26.50
2022-08-03T03:47:16.658Z,26.50
2022-08-03T03:49:44.085Z,26.50
2022-08-03T03:52:11.163Z,26.50
2022-08-03T03:54:42.227Z,26.50
2022-08-03T03:57:13.678Z,26.50
2022-08-03T03:59:41.573Z,26.50
2022-08-03T04:02:09.280Z,26.50
2022-08-03T04:04:56.212Z,26.50
2022-08-03T04:07:42.585Z,26.50
2022-08-03T04:10:31.600Z,26.40
2022-08-03T04:13:00.461Z,26.40
2022-08-03T04:15:28.523Z,26.40
2022-08-03T04:17:57.876Z,26.40
2022-08-03T04:20:27.884Z,26.40
2022-08-03T04:22:56.589Z,26.40
2022-08-03T04:25:25.425Z,26.40
2022-08-03T04:28:19.687Z,26.40
2022-08-03T04:30:47.745Z,26.40
2022-08-03T04:33:16.337Z,26.40
2022-08-03T04:36:01.438Z,26.40
2022-08-03T04:38:30.515Z,26.40
2022-08-03T04:40:57.856Z,26.40
2022-08-03T04:43:25.262Z,26.40
2022-08-03T04:45:53.102Z,26.40
2022-08-03T04:48:20.630Z,26.40
2022-08-03T04:50:48.016Z,26.30
2022-08-03T04:53:16.476Z,26.40
2022-08-03T04:55:43.608Z,26.40
2022-08-03T04:58:10.821Z,26.40
2022-08-03T05:00:38.037Z,26.40
2022-08-03T05:03:23.898Z,26.40
2022-08-03T05:05:52.158Z,26.40
2022-08-03T05:08:27.897Z,26.40
2022-08-03T05:10:59.090Z,26.30
2022-08-03T05:13:26.680Z,26.30
2022-08-03T05:15:53.791Z,26.30
2022-08-03T05:18:20.992Z,26.30
2022-08-03T05:20:48.150Z,26.40
2022-08-03T05:23:15.344Z,26.40
2022-08-03T05:25:49.735Z,26.40
2022-08-03T05:28:17.326Z,26.40
2022-08-03T05:30:44.772Z,26.20
2022-08-03T05:33:11.898Z,26.00
2022-08-03T05:35:56.236Z,25.90
2022-08-03T05:38:34.186Z,25.80
2022-08-03T05:41:22.294Z,25.70
2022-08-03T05:43:51.346Z,25.60
2022-08-03T05:46:18.385Z,25.50
2022-08-03T05:48:45.516Z,25.50
2022-08-03T05:51:13.361Z,25.50
2022-08-03T05:53:41.252Z,25.70
2022-08-03T05:56:13.908Z,25.80
2022-08-03T05:58:43.748Z,25.90
2022-08-03T06:01:10.868Z,26.00
2022-08-03T06:03:37.977Z,26.10
2022-08-03T06:06:05.092Z,26.10
2022-08-03T06:08:32.185Z,26.20
2022-08-03T06:10:59.486Z,26.20
2022-08-03T06:13:26.564Z,26.20
2022-08-03T06:15:53.661Z,26.20
2022-08-03T06:18:20.750Z,26.20
2022-08-03T06:20:49.390Z,26.30
2022-08-03T06:23:18.101Z,26.30
2022-08-03T06:25:45.884Z,26.30
2022-08-03T06:28:35.257Z,26.30
2022-08-03T06:31:01.946Z,26.40
2022-08-03T06:34:31.356Z,26.40
2022-08-03T06:36:16.375Z,26.40
2022-08-03T06:38:43.410Z,26.50
2022-08-03T06:41:10.467Z,26.40
2022-08-03T06:43:37.940Z,26.50
2022-08-03T06:46:24.890Z,26.50
2022-08-03T06:48:53.205Z,26.50
2022-08-03T06:51:20.362Z,26.50
2022-08-03T06:53:47.478Z,26.50
2022-08-03T06:56:14.586Z,26.50
2022-08-03T06:58:41.778Z,26.60
2022-08-03T07:01:08.968Z,26.50
2022-08-03T07:03:36.399Z,26.60
2022-08-03T07:06:19.154Z,26.60
2022-08-03T07:08:48.520Z,26.60
2022-08-03T07:11:18.621Z,26.60
2022-08-03T07:13:46.590Z,26.60
2022-08-03T07:16:13.637Z,26.60
2022-08-03T07:18:40.734Z,26.60
2022-08-03T07:21:09.280Z,26.60
2022-08-03T07:23:36.348Z,26.60
2022-08-03T07:26:03.460Z,26.60
2022-08-03T07:28:30.781Z,26.70
2022-08-03T07:30:57.886Z,26.60
2022-08-03T07:33:24.990Z,26.60
2022-08-03T07:35:52.200Z,26.60
2022-08-03T07:38:21.205Z,26.70
2022-08-03T07:40:48.585Z,26.70
2022-08-03T07:43:15.702Z,26.70
2022-08-03T07:45:42.844Z,26.80
2022-08-03T07:48:12.379Z,26.80
2022-08-03T07:50:40.401Z,26.80
2022-08-03T07:53:07.457Z,26.80
2022-08-03T07:55:35.141Z,26.90
2022-08-03T07:58:03.934Z,26.90
2022-08-03T08:00:31.448Z,26.90
2022-08-03T08:02:58.528Z,26.90
2022-08-03T08:05:26.092Z,26.90
2022-08-03T08:07:53.161Z,26.90
2022-08-03T08:10:20.445Z,27.00
2022-08-03T08:12:47.672Z,27.00
2022-08-03T08:15:14.764Z,27.00
2022-08-03T08:17:42.938Z,27.10
2022-08-03T08:20:11.003Z,27.10
2022-08-03T08:22:38.117Z,27.10
2022-08-03T08:25:07.798Z,27.10
2022-08-03T08:28:29.507Z,27.10
2022-08-03T08:30:28.236Z,27.10
2022-08-03T08:32:59.569Z,27.10
2022-08-03T08:35:26.768Z,27.20
2022-08-03T08:37:53.829Z,27.20
2022-08-03T08:40:22.401Z,27.20
2022-08-03T08:42:58.751Z,27.20
2022-08-03T08:45:26.690Z,27.20
2022-08-03T08:47:59.762Z,27.30
2022-08-03T08:50:29.630Z,27.30
2022-08-03T08:53:00.138Z,27.30
2022-08-03T08:55:27.313Z,27.30
2022-08-03T08:57:59.352Z,27.30
2022-08-03T09:00:26.560Z,27.30
2022-08-03T09:02:53.755Z,27.30
2022-08-03T09:05:31.671Z,27.30
2022-08-03T09:08:08.993Z,27.30
2022-08-03T09:10:36.097Z,27.40
2022-08-03T09:13:03.181Z,27.40
2022-08-03T09:15:31.760Z,27.30
2022-08-03T09:17:59.803Z,27.40
2022-08-03T09:20:30.530Z,27.40
2022-08-03T09:22:57.672Z,27.40
2022-08-03T09:25:28.953Z,27.40
2022-08-03T09:28:03.796Z,27.40
2022-08-03T09:30:34.391Z,27.40
2022-08-03T09:33:02.925Z,27.40
2022-08-03T09:38:18.357Z,27.40
2022-08-03T09:40:46.196Z,27.40
2022-08-03T09:43:14.360Z,27.40
2022-08-03T09:45:42.496Z,27.40
2022-08-03T09:48:23.132Z,27.40
2022-08-03T09:50:58.807Z,27.40
2022-08-03T09:53:58.482Z,27.50
2022-08-03T09:56:38.955Z,27.50
2022-08-03T09:59:06.144Z,27.50
2022-08-03T10:01:34.806Z,27.50
2022-08-03T10:04:03.803Z,27.50
2022-08-03T10:06:31.724Z,27.50
2022-08-03T10:09:08.984Z,27.60
2022-08-03T10:11:41.152Z,27.60
2022-08-03T10:14:10.375Z,27.60
2022-08-03T10:16:38.422Z,27.60
2022-08-03T10:19:07.569Z,27.60
2022-08-03T10:21:35.590Z,27.60
2022-08-03T10:24:03.992Z,27.50
2022-08-03T10:26:32.414Z,27.50
2022-08-03T10:29:01.421Z,27.50
2022-08-03T10:31:34.660Z,27.50
2022-08-03T10:34:02.137Z,27.50
2022-08-03T10:36:31.776Z,27.50
2022-08-03T10:39:00.773Z,27.40
2022-08-03T10:41:32.322Z,27.50
2022-08-03T10:44:08.092Z,27.50
2022-08-03T10:46:38.368Z,27.50
2022-08-03T10:49:09.150Z,27.50
2022-08-03T10:51:36.350Z,27.50
2022-08-03T10:54:03.972Z,27.50
2022-08-03T10:56:54.491Z,27.50
2022-08-03T10:59:40.413Z,27.50
2022-08-03T11:02:10.147Z,27.40
2022-08-03T11:04:37.262Z,27.50
2022-08-03T11:07:19.762Z,27.50
2022-08-03T11:09:54.491Z,27.50
2022-08-03T11:12:30.780Z,27.50
2022-08-03T11:15:01.010Z,27.50
2022-08-03T11:17:28.062Z,27.50
2022-08-03T11:19:56.632Z,27.50
2022-08-03T11:22:25.494Z,27.40
2022-08-03T11:24:56.314Z,27.50
2022-08-03T11:27:35.681Z,27.50
2022-08-03T11:30:05.696Z,27.50
2022-08-03T11:32:53.077Z,27.50
2022-08-03T11:35:21.613Z,27.50
2022-08-03T11:38:03.003Z,27.50
2022-08-03T11:40:32.133Z,27.50
2022-08-03T11:42:59.208Z,27.50
2022-08-03T11:45:26.370Z,27.50
2022-08-03T11:47:54.296Z,27.50
2022-08-03T11:50:21.693Z,27.50
2022-08-03T11:52:49.281Z,27.50
2022-08-03T11:55:18.849Z,27.50
2022-08-03T11:59:01.264Z,27.50
2022-08-03T12:00:34.214Z,27.50
2022-08-03T12:03:04.142Z,27.50
2022-08-03T12:05:40.504Z,27.50
2022-08-03T12:08:08.365Z,27.50
2022-08-03T12:10:35.844Z,27.50
2022-08-03T12:13:05.884Z,27.50
2022-08-03T12:15:54.098Z,27.50
2022-08-03T12:18:22.400Z,27.60
2022-08-03T12:20:50.509Z,27.60
2022-08-03T12:23:17.796Z,27.50
2022-08-03T12:25:45.926Z,27.50
2022-08-03T12:28:35.962Z,27.60
2022-08-03T12:31:06.184Z,27.60
2022-08-03T12:33:53.185Z,27.60
2022-08-03T12:36:20.445Z,27.60
2022-08-03T12:38:54.590Z,27.60
2022-08-03T12:41:27.693Z,27.70
2022-08-03T12:43:55.055Z,27.70
2022-08-03T12:46:22.258Z,27.70
2022-08-03T12:48:59.490Z,27.80
2022-08-03T12:51:27.474Z,27.80
2022-08-03T12:53:55.309Z,27.80
2022-08-03T12:56:22.579Z,27.80
2022-08-03T12:58:53.112Z,27.80
2022-08-03T13:01:22.529Z,27.80
2022-08-03T13:03:52.843Z,27.90
2022-08-03T13:06:21.550Z,27.90
2022-08-03T13:08:49.192Z,27.90
2022-08-03T13:11:55.827Z,27.90
2022-08-03T13:14:16.801Z,27.90
2022-08-03T13:16:47.446Z,28.00
2022-08-03T13:19:15.471Z,28.00
2022-08-03T13:22:01.632Z,28.00
2022-08-03T13:24:31.920Z,28.00
2022-08-03T13:26:59.540Z,28.10
2022-08-03T13:29:26.576Z,28.10
2022-08-03T13:31:53.744Z,28.10
2022-08-03T13:34:23.436Z,28.10
2022-08-03T13:37:19.772Z,28.20
2022-08-03T13:39:58.432Z,28.20
2022-08-03T13:42:26.329Z,28.20
2022-08-03T13:44:53.421Z,28.30
2022-08-03T13:47:20.898Z,28.30
2022-08-03T13:50:00.072Z,28.30
2022-08-03T13:52:35.635Z,28.40
2022-08-03T13:55:04.095Z,28.40
2022-08-03T13:58:03.796Z,28.50
2022-08-03T14:00:26.984Z,28.50
2022-08-03T14:03:17.604Z,28.60
2022-08-03T14:05:44.874Z,28.60
2022-08-03T14:08:12.038Z,28.70
2022-08-03T14:10:41.301Z,28.70
2022-08-03T14:13:08.923Z,28.70
2022-08-03T14:15:37.619Z,28.80
2022-08-03T14:18:06.374Z,28.80
2022-08-03T14:20:36.898Z,28.90
2022-08-03T14:23:14.905Z,28.90
2022-08-03T14:25:43.424Z,29.00
2022-08-03T14:28:22.526Z,29.00
2022-08-03T14:30:50.589Z,29.10
2022-08-03T14:33:17.834Z,29.10
2022-08-03T14:35:44.919Z,29.20
2022-08-03T14:38:12.019Z,29.20
2022-08-03T14:40:39.095Z,29.20
2022-08-03T14:43:06.204Z,29.30
2022-08-03T14:45:34.425Z,29.30
2022-08-03T14:50:29.094Z,29.30
2022-08-03T14:50:51.619Z,29.30
2022-08-03T14:53:19.479Z,29.30
2022-08-03T14:55:49.553Z,29.40
2022-08-03T14:58:21.047Z,29.40
2022-08-03T15:00:49.213Z,29.40
2022-08-03T15:03:17.409Z,29.40
2022-08-03T15:05:44.736Z,29.50
2022-08-03T15:08:11.843Z,29.50
2022-08-03T15:10:44.425Z,29.50
2022-08-03T15:13:13.451Z,29.60
2022-08-03T15:15:40.873Z,29.60
2022-08-03T15:18:08.306Z,29.70
2022-08-03T15:20:51.075Z,29.60
2022-08-03T15:23:18.665Z,29.70
2022-08-03T15:26:32.315Z,29.80
2022-08-03T15:28:33.461Z,29.80
2022-08-03T15:31:00.951Z,29.80
2022-08-03T15:33:28.604Z,29.90
2022-08-03T15:35:56.472Z,29.90
2022-08-03T15:38:25.683Z,29.90
2022-08-03T15:40:56.197Z,29.90
2022-08-03T15:43:23.968Z,30.00
2022-08-03T15:46:12.886Z,30.00
2022-08-03T15:48:38.700Z,30.00
2022-08-03T15:51:06.064Z,30.00
2022-08-03T15:53:33.641Z,30.00
2022-08-03T15:56:02.553Z,30.00
2022-08-03T15:59:09.356Z,29.90
2022-08-03T16:01:20.460Z,29.80
2022-08-03T16:03:49.503Z,29.90
2022-08-03T16:06:16.785Z,29.80
2022-08-03T16:08:56.698Z,29.70
2022-08-03T16:11:23.880Z,29.60
2022-08-03T16:14:13.179Z,29.50
2022-08-03T16:16:40.844Z,29.50
2022-08-03T16:19:08.080Z,29.30
2022-08-03T16:21:45.931Z,29.30
2022-08-03T16:24:19.741Z,29.30
2022-08-03T16:26:51.485Z,29.30
2022-08-03T16:29:23.209Z,29.20
2022-08-03T16:31:51.948Z,29.20
2022-08-03T16:34:19.982Z,29.20
2022-08-03T16:36:47.134Z,29.10
2022-08-03T16:39:14.395Z,29.10
2022-08-03T16:41:54.143Z,29.10
2022-08-03T16:44:29.420Z,29.10
2022-08-03T16:46:56.613Z,29.10
2022-08-03T16:49:53.662Z,29.10
2022-08-03T16:52:13.046Z,29.10
2022-08-03T16:54:40.619Z,29.30
2022-08-03T16:57:08.665Z,29.30
2022-08-03T16:59:36.714Z,29.40
2022-08-03T17:02:09.694Z,29.40
2022-08-03T17:04:40.183Z,29.40
2022-08-03T17:07:08.680Z,29.50
2022-08-03T17:09:38.645Z,29.50
2022-08-03T17:12:07.428Z,29.60
2022-08-03T17:14:38.797Z,29.70
2022-08-03T17:17:16.518Z,29.70
2022-08-03T17:19:47.321Z,29.70
2022-08-03T17:22:19.506Z,29.70
2022-08-03T17:24:49.866Z,29.70
2022-08-03T17:28:41.920Z,29.70
2022-08-03T17:30:08.073Z,29.70
2022-08-03T17:32:37.101Z,29.70
2022-08-03T17:35:10.398Z,29.70
2022-08-03T17:38:04.045Z,29.70
2022-08-03T17:40:25.235Z,29.80
2022-08-03T17:42:53.141Z,29.70
2022-08-03T17:45:20.642Z,29.80
2022-08-03T17:47:57.166Z,29.80
2022-08-03T17:50:44.181Z,29.80
2022-08-03T17:53:23.776Z,29.80
2022-08-03T17:56:04.840Z,29.80
2022-08-03T17:58:41.475Z,29.80
2022-08-03T18:02:03.199Z,29.70
2022-08-03T18:04:21.670Z,29.60
2022-08-03T18:06:59.325Z,29.60
2022-08-03T18:10:04.729Z,29.60
2022-08-03T18:12:18.498Z,29.70
2022-08-03T18:14:57.707Z,29.70
2022-08-03T18:18:01.639Z,29.70
2022-08-03T18:20:32.222Z,29.70
2022-08-03T18:23:08.794Z,29.60
2022-08-03T18:25:45.490Z,29.70
2022-08-03T18:28:18.527Z,29.60
2022-08-03T18:30:53.080Z,29.60
2022-08-03T18:34:17.505Z,29.60
2022-08-03T18:36:17.421Z,29.50
2022-08-03T18:38:46.693Z,29.50
2022-08-03T18:41:20.707Z,29.50
2022-08-03T18:44:08.612Z,29.50
2022-08-03T18:46:42.139Z,29.40
2022-08-03T18:49:19.093Z,29.40
2022-08-03T18:51:46.637Z,29.40
2022-08-03T18:54:45.668Z,29.40
2022-08-03T18:57:09.281Z,29.40
2022-08-03T18:59:55.149Z,29.40
2022-08-03T19:02:38.233Z,29.40
2022-08-03T19:05:07.577Z,29.40
2022-08-03T19:07:36.042Z,29.40
2022-08-03T19:10:05.484Z,29.40
2022-08-03T19:12:51.281Z,29.40
2022-08-03T19:18:10.943Z,29.40
2022-08-03T19:20:38.348Z,29.40
2022-08-03T19:23:06.589Z,29.30
2022-08-03T19:25:37.617Z,29.30
2022-08-03T19:28:06.081Z,29.30
2022-08-03T19:30:38.791Z,29.30
2022-08-03T19:33:10.980Z,29.30
2022-08-03T19:35:55.051Z,29.30
2022-08-03T19:38:28.689Z,29.30
2022-08-03T19:40:58.253Z,29.20
2022-08-03T19:43:53.294Z,29.30
2022-08-03T19:46:30.633Z,29.20
2022-08-03T19:49:10.416Z,29.20
2022-08-03T19:52:01.113Z,29.20
2022-08-03T19:54:35.145Z,29.20
2022-08-03T19:57:02.509Z,29.20
2022-08-03T19:59:35.933Z,29.20
2022-08-03T20:02:09.293Z,29.20
2022-08-03T20:04:53.881Z,29.10
2022-08-03T20:07:22.850Z,29.20
2022-08-03T20:09:56.161Z,29.20
2022-08-03T20:12:28.590Z,29.20
2022-08-03T20:14:59.276Z,29.20
2022-08-03T20:20:21.067Z,29.20
2022-08-03T20:22:53.029Z,29.10
2022-08-03T20:25:39.443Z,29.20
2022-08-03T20:28:26.803Z,29.10
2022-08-03T20:30:54.041Z,29.10
2022-08-03T20:33:34.580Z,29.10
2022-08-03T20:36:08.922Z,29.10
2022-08-03T20:38:40.931Z,29.10
2022-08-03T20:41:11.114Z,29.00
2022-08-03T20:43:40.924Z,29.00
2022-08-03T20:46:30.813Z,29.00
2022-08-03T20:48:57.158Z,29.00
2022-08-03T20:51:50.068Z,29.00
2022-08-03T20:54:29.423Z,29.00
2022-08-03T20:57:07.002Z,29.00
2022-08-03T20:59:50.383Z,28.90
2022-08-03T21:02:30.018Z,29.00
2022-08-03T21:04:59.143Z,28.90
2022-08-03T21:08:03.975Z,28.90
2022-08-03T21:10:24.720Z,28.90
2022-08-03T21:13:01.803Z,29.40
2022-08-03T21:13:03.794Z,29.20
2022-08-03T21:13:15.443Z,28.90
2022-08-03T21:16:06.493Z,28.90
2022-08-03T21:18:36.280Z,28.80
2022-08-03T21:21:03.808Z,28.80
2022-08-03T21:23:40.080Z,28.80
2022-08-03T21:26:16.626Z,28.80
2022-08-03T21:28:45.167Z,28.70
2022-08-03T21:31:13.125Z,28.70
2022-08-03T21:33:40.909Z,28.60
2022-08-03T21:36:11.606Z,28.60
2022-08-03T21:38:39.880Z,28.60
2022-08-03T21:41:08.729Z,28.60
2022-08-03T21:43:35.976Z,28.60
2022-08-03T21:46:04.057Z,28.60
2022-08-03T21:48:35.996Z,28.60
2022-08-03T21:51:03.863Z,28.50
2022-08-03T21:54:00.351Z,28.50
2022-08-03T21:56:20.370Z,28.50
2022-08-03T21:58:54.515Z,28.40
2022-08-03T22:01:23.693Z,28.10
2022-08-03T22:03:54.048Z,27.90
2022-08-03T22:06:22.097Z,27.80
2022-08-03T22:08:50.469Z,27.80
2022-08-03T22:11:17.583Z,27.90
2022-08-03T22:13:44.832Z,28.10
2022-08-03T22:16:13.372Z,28.30
2022-08-03T22:18:41.629Z,28.40
2022-08-03T22:21:12.832Z,28.50
2022-08-03T22:23:41.460Z,28.50
2022-08-03T22:26:12.098Z,28.60
2022-08-03T22:28:39.888Z,28.60
2022-08-03T22:31:56.911Z,28.70
2022-08-03T22:33:54.999Z,28.70
2022-08-03T22:36:23.858Z,28.70
2022-08-03T22:38:52.004Z,28.70
2022-08-03T22:41:19.747Z,28.70
2022-08-03T22:43:46.939Z,28.70
2022-08-03T22:46:18.664Z,28.70
2022-08-03T22:48:46.499Z,28.70
2022-08-03T22:51:15.181Z,28.60
2022-08-03T22:53:44.728Z,28.60
2022-08-03T22:56:12.476Z,28.60
2022-08-03T22:58:39.701Z,28.60
2022-08-03T23:01:08.267Z,28.60
2022-08-03T23:03:59.782Z,28.60
2022-08-03T23:06:27.692Z,28.60
2022-08-03T23:08:55.137Z,28.60
2022-08-03T23:11:23.823Z,28.60
2022-08-03T23:13:53.329Z,28.60
2022-08-03T23:16:28.977Z,28.60
2022-08-03T23:18:58.745Z,28.60
2022-08-03T23:22:00.199Z,28.60
2022-08-03T23:24:26.013Z,28.60
2022-08-03T23:26:58.146Z,28.60
2022-08-03T23:29:26.137Z,28.60
2022-08-03T23:31:53.595Z,28.60
2022-08-03T23:34:39.754Z,28.60
2022-08-03T23:37:06.884Z,28.60
2022-08-03T23:39:35.256Z,28.60
2022-08-03T23:42:03.045Z,28.60
2022-08-03T23:44:31.206Z,28.60
2022-08-03T23:46:58.309Z,28.60
2022-08-03T23:49:25.424Z,28.50
2022-08-03T23:51:59.683Z,28.60
2022-08-03T23:54:45.387Z,28.60
2022-08-03T23:57:22.605Z,28.50
